Time;durP1;ratioP1;P1;durP2;ratioP2;P2;SDS_P1;SDS_P2;PMS_P1;PMS_P2;Temp;Humidity;BMP_temperature;BMP_pressure;BME280_temperature;BME280_humidity;BME280_pressure;Samples;Min_cycle;Max_cycle;Signal;HPM_P1;HPM_P2
2021/12/30 00:00:17;;;;;;;29.33;4.35;;;7.40;99.90;;;;;;5051174;28;20025;-86
2021/12/30 00:02:42;;;;;;;43.10;3.83;;;7.50;99.90;;;;;;5050720;28;20503;-86
2021/12/30 00:05:09;;;;;;;32.28;4.07;;;7.40;99.90;;;;;;5049410;28;20045;-86
2021/12/30 00:07:35;;;;;;;30.30;3.67;;;7.50;99.90;;;;;;5049521;28;20029;-86
2021/12/30 00:10:02;;;;;;;35.95;4.20;;;7.50;99.90;;;;;;5051100;28;20540;-86
2021/12/30 00:12:27;;;;;;;34.20;4.00;;;7.30;99.90;;;;;;5049357;28;20444;-87
2021/12/30 00:14:53;;;;;;;25.98;3.20;;;7.30;99.90;;;;;;5050110;28;20029;-86
2021/12/30 00:17:18;;;;;;;37.53;4.95;;;7.30;99.90;;;;;;5049624;28;20029;-85
2021/12/30 00:19:44;;;;;;;31.85;4.05;;;7.20;99.90;;;;;;5049676;28;20370;-86
2021/12/30 00:22:10;;;;;;;29.23;4.85;;;7.20;99.90;;;;;;5049450;28;20028;-86
2021/12/30 00:24:35;;;;;;;38.55;4.60;;;7.20;99.90;;;;;;5049313;28;20306;-86
2021/12/30 00:27:01;;;;;;;27.30;4.15;;;7.10;99.90;;;;;;5049381;28;20087;-86
2021/12/30 00:29:27;;;;;;;40.92;4.43;;;7.20;99.90;;;;;;5049487;28;20082;-86
2021/12/30 00:31:52;;;;;;;33.50;5.38;;;7.20;99.90;;;;;;5049247;28;20064;-86
2021/12/30 00:34:18;;;;;;;39.33;4.65;;;7.30;99.90;;;;;;5049555;28;20459;-86
2021/12/30 00:36:44;;;;;;;43.72;5.57;;;7.40;99.90;;;;;;5049152;28;20027;-85
2021/12/30 00:39:09;;;;;;;35.00;3.67;;;7.30;99.90;;;;;;5049376;28;20021;-86
2021/12/30 00:41:35;;;;;;;36.05;4.22;;;7.50;99.90;;;;;;5050658;28;20021;-86
2021/12/30 00:44:01;;;;;;;41.95;4.28;;;7.60;99.90;;;;;;5049348;28;20025;-86
2021/12/30 00:46:27;;;;;;;40.55;4.53;;;7.40;99.90;;;;;;5049317;28;20017;-86
2021/12/30 00:48:53;;;;;;;37.38;4.80;;;7.50;99.90;;;;;;5050582;28;20025;-86
2021/12/30 00:51:18;;;;;;;33.75;4.57;;;7.40;99.90;;;;;;5049286;28;20025;-86
2021/12/30 00:53:44;;;;;;;29.75;3.97;;;7.60;99.90;;;;;;5049216;28;20388;-86
2021/12/30 00:56:10;;;;;;;39.17;4.47;;;7.50;99.90;;;;;;5049253;28;20113;-86
2021/12/30 00:58:36;;;;;;;24.52;4.53;;;7.50;99.90;;;;;;5050375;28;20520;-86
2021/12/30 01:01:04;;;;;;;37.97;4.72;;;7.40;99.90;;;;;;5049105;28;20155;-87
2021/12/30 01:03:30;;;;;;;25.92;3.15;;;7.40;99.90;;;;;;5048874;28;20037;-86
2021/12/30 01:05:56;;;;;;;28.90;3.67;;;7.40;99.90;;;;;;5049659;28;20025;-86
2021/12/30 01:08:22;;;;;;;30.52;3.97;;;7.20;99.90;;;;;;5049016;28;20412;-86
2021/12/30 01:10:48;;;;;;;32.30;4.30;;;7.30;99.90;;;;;;5049350;28;20029;-86
2021/12/30 01:13:23;;;;;;;27.63;3.63;;;7.30;99.90;;;;;;5049098;28;20032;-86
2021/12/30 01:15:58;;;;;;;33.20;4.03;;;7.20;99.90;;;;;;5049004;28;20079;-87
2021/12/30 01:18:34;;;;;;;37.83;4.32;;;7.10;99.90;;;;;;5048922;28;20029;-86
2021/12/30 01:21:00;;;;;;;30.60;3.20;;;7.20;99.90;;;;;;5049048;28;20025;-86
2021/12/30 01:23:27;;;;;;;44.03;5.57;;;7.20;99.90;;;;;;5053333;28;20063;-86
2021/12/30 01:25:55;;;;;;;25.73;3.75;;;7.10;99.90;;;;;;5052721;28;20117;-85
2021/12/30 01:28:24;;;;;;;28.20;3.50;;;7.10;99.90;;;;;;5051535;28;20056;-86
2021/12/30 01:30:50;;;;;;;28.80;4.45;;;7.20;99.90;;;;;;5054078;28;20121;-86
2021/12/30 01:33:17;;;;;;;19.45;3.38;;;7.10;99.90;;;;;;5052276;28;20025;-86
2021/12/30 01:35:42;;;;;;;38.17;4.40;;;7.20;99.90;;;;;;5052705;28;20091;-85
2021/12/30 01:38:12;;;;;;;34.67;4.63;;;7.10;99.90;;;;;;5053841;28;20415;-86
2021/12/30 01:40:39;;;;;;;31.83;4.07;;;7.20;99.90;;;;;;5052461;28;20052;-86
2021/12/30 01:43:06;;;;;;;34.45;3.80;;;7.10;99.90;;;;;;5053541;28;20079;-86
2021/12/30 01:45:32;;;;;;;29.92;4.82;;;7.10;99.90;;;;;;5052444;28;20021;-86
2021/12/30 01:47:58;;;;;;;28.30;3.88;;;7.20;99.90;;;;;;5052252;28;20032;-86
2021/12/30 01:50:25;;;;;;;30.98;3.83;;;7.20;99.90;;;;;;5052560;28;20049;-86
2021/12/30 01:52:51;;;;;;;28.45;2.83;;;7.20;99.90;;;;;;5052257;28;20064;-86
2021/12/30 01:55:19;;;;;;;28.60;2.83;;;7.20;99.90;;;;;;5052328;28;20078;-86
2021/12/30 01:57:47;;;;;;;33.45;5.65;;;7.20;99.90;;;;;;5052032;28;20079;-85
2021/12/30 02:00:17;;;;;;;29.27;3.10;;;7.20;99.90;;;;;;5053399;28;20025;-86
2021/12/30 02:02:42;;;;;;;31.88;4.22;;;7.30;99.90;;;;;;5052212;28;20104;-85
2021/12/30 02:05:09;;;;;;;28.08;3.70;;;7.30;99.90;;;;;;5051863;28;20072;-86
2021/12/30 02:07:34;;;;;;;30.77;4.32;;;7.20;99.90;;;;;;5052073;28;20441;-86
2021/12/30 02:10:01;;;;;;;22.77;3.65;;;7.30;99.90;;;;;;5053460;28;20072;-86
2021/12/30 02:12:31;;;;;;;35.20;3.80;;;7.20;99.90;;;;;;5051642;28;20485;-86
2021/12/30 02:14:57;;;;;;;35.25;4.53;;;7.40;99.90;;;;;;5051906;28;20037;-85
2021/12/30 02:17:22;;;;;;;29.00;3.92;;;7.30;99.90;;;;;;5051806;28;20021;-86
2021/12/30 02:19:48;;;;;;;36.83;4.28;;;7.30;99.90;;;;;;5053571;28;20020;-86
2021/12/30 02:22:14;;;;;;;38.75;4.68;;;7.40;99.90;;;;;;5051641;28;20769;-86
2021/12/30 02:24:47;;;;;;;38.90;5.30;;;7.30;99.90;;;;;;5051632;28;20526;-86
2021/12/30 02:27:12;;;;;;;30.00;4.03;;;7.40;99.90;;;;;;5051636;28;20025;-86
2021/12/30 02:29:38;;;;;;;42.40;4.55;;;7.30;99.90;;;;;;5052731;28;20021;-86
2021/12/30 02:32:04;;;;;;;34.55;4.20;;;7.30;99.90;;;;;;5051389;28;20040;-86
2021/12/30 02:34:30;;;;;;;39.85;5.03;;;7.50;99.90;;;;;;5035221;28;20036;-86
2021/12/30 02:36:56;;;;;;;33.40;3.85;;;7.50;99.90;;;;;;5052768;28;20032;-85
2021/12/30 02:39:23;;;;;;;43.45;4.45;;;7.50;99.90;;;;;;5050388;28;20025;-85
2021/12/30 02:41:49;;;;;;;34.22;5.43;;;7.50;99.90;;;;;;5051494;28;20029;-86
2021/12/30 02:44:15;;;;;;;55.92;5.18;;;7.60;99.90;;;;;;5051108;28;20550;-86
2021/12/30 02:46:41;;;;;;;50.03;5.35;;;7.70;99.90;;;;;;5052778;28;20040;-86
2021/12/30 02:49:07;;;;;;;44.30;5.18;;;7.90;99.90;;;;;;5052778;28;20082;-86
2021/12/30 02:51:33;;;;;;;42.88;5.20;;;7.90;99.90;;;;;;5051215;28;20032;-86
2021/12/30 02:53:59;;;;;;;35.78;4.20;;;7.90;99.90;;;;;;5051334;28;20033;-86
2021/12/30 02:56:26;;;;;;;43.83;4.57;;;8.00;99.90;;;;;;5051040;28;20033;-86
2021/12/30 02:58:53;;;;;;;36.50;4.60;;;8.20;99.90;;;;;;5050901;28;20493;-86
2021/12/30 03:01:22;;;;;;;41.55;5.15;;;8.30;99.90;;;;;;5050922;28;20021;-86
2021/12/30 03:03:48;;;;;;;48.88;5.20;;;8.30;99.90;;;;;;5050754;28;20052;-85
2021/12/30 03:06:15;;;;;;;42.92;4.47;;;8.30;99.90;;;;;;5050874;28;20472;-86
2021/12/30 03:08:42;;;;;;;43.53;5.18;;;8.50;99.90;;;;;;5051199;28;20020;-86
2021/12/30 03:11:08;;;;;;;39.47;4.93;;;8.60;99.90;;;;;;5052084;28;20079;-86
2021/12/30 03:13:35;;;;;;;42.75;5.20;;;8.50;99.90;;;;;;5051031;28;20025;-86
2021/12/30 03:16:06;;;;;;;35.47;4.05;;;8.70;99.90;;;;;;5050727;28;20051;-86
2021/12/30 03:18:33;;;;;;;41.65;5.75;;;8.80;99.90;;;;;;5050716;28;20396;-85
2021/12/30 03:21:00;;;;;;;35.58;5.00;;;8.70;99.90;;;;;;5050675;28;20063;-86
2021/12/30 03:23:25;;;;;;;39.92;5.18;;;8.70;99.90;;;;;;5050960;28;20461;-86
2021/12/30 03:25:51;;;;;;;44.45;4.43;;;8.70;99.90;;;;;;5050388;28;20052;-86
2021/12/30 03:28:17;;;;;;;48.67;5.50;;;8.70;99.90;;;;;;5052021;28;20412;-86
2021/12/30 03:30:43;;;;;;;35.95;5.35;;;8.80;99.90;;;;;;5050382;28;20025;-86
2021/12/30 03:33:09;;;;;;;36.20;5.65;;;8.90;99.90;;;;;;5051920;28;20044;-86
2021/12/30 03:35:35;;;;;;;34.38;4.78;;;8.80;99.90;;;;;;5050640;28;20104;-86
2021/12/30 03:38:00;;;;;;;29.67;3.70;;;8.80;99.90;;;;;;5051687;28;20025;-85
2021/12/30 03:40:26;;;;;;;46.58;5.20;;;8.90;99.90;;;;;;5050712;28;20025;-86
2021/12/30 03:42:52;;;;;;;34.20;4.32;;;8.80;99.90;;;;;;5050583;28;20029;-86
2021/12/30 03:45:17;;;;;;;46.28;4.45;;;8.80;99.90;;;;;;5051501;28;20028;-86
2021/12/30 03:47:47;;;;;;;37.72;4.43;;;8.80;99.90;;;;;;5050087;28;20206;-86
2021/12/30 03:50:20;;;;;;;34.03;5.13;;;8.90;99.90;;;;;;5049897;28;20051;-85
2021/12/30 03:52:51;;;;;;;41.60;4.88;;;8.90;99.90;;;;;;5051674;28;20029;-85
2021/12/30 03:55:19;;;;;;;46.30;5.25;;;8.90;99.90;;;;;;5049910;28;20268;-86
2021/12/30 03:57:46;;;;;;;55.28;6.18;;;9.00;99.90;;;;;;5049986;28;20063;-86
2021/12/30 04:00:13;;;;;;;46.00;5.13;;;9.10;99.90;;;;;;5050015;28;20459;-86
2021/12/30 04:02:39;;;;;;;43.60;5.43;;;9.10;99.90;;;;;;5050132;28;20028;-86
2021/12/30 04:05:06;;;;;;;43.50;5.47;;;9.20;99.90;;;;;;5050932;28;20075;-86
2021/12/30 04:07:31;;;;;;;40.97;6.22;;;9.30;99.90;;;;;;5051073;28;20464;-86
2021/12/30 04:09:57;;;;;;;49.13;5.40;;;9.50;99.90;;;;;;5049834;28;20059;-86
2021/12/30 04:12:22;;;;;;;43.75;5.88;;;9.50;99.90;;;;;;5049599;28;20025;-86
2021/12/30 04:14:48;;;;;;;49.15;5.53;;;9.50;99.90;;;;;;5049769;28;20052;-86
2021/12/30 04:17:14;;;;;;;46.95;6.97;;;9.60;99.90;;;;;;5050809;28;20195;-86
2021/12/30 04:19:39;;;;;;;51.13;6.25;;;9.80;99.90;;;;;;5049730;28;20495;-86
2021/12/30 04:22:05;;;;;;;56.50;6.15;;;9.90;99.90;;;;;;5049508;28;20032;-86
2021/12/30 04:24:30;;;;;;;57.13;5.72;;;10.00;99.90;;;;;;5049607;28;20021;-87
2021/12/30 04:26:56;;;;;;;62.70;7.03;;;10.10;99.90;;;;;;5050958;28;20025;-86
2021/12/30 04:29:23;;;;;;;51.58;6.32;;;10.10;99.90;;;;;;5050785;28;20485;-86
2021/12/30 04:31:49;;;;;;;61.72;8.10;;;10.20;99.90;;;;;;5049157;28;20166;-86
2021/12/30 04:34:15;;;;;;;59.95;8.07;;;10.20;99.90;;;;;;5049532;28;20111;-86
2021/12/30 04:36:41;;;;;;;56.10;7.53;;;10.30;99.90;;;;;;5049460;28;20401;-85
2021/12/30 04:39:07;;;;;;;70.82;7.70;;;10.30;99.90;;;;;;5049430;28;20025;-86
2021/12/30 04:41:33;;;;;;;71.95;8.02;;;10.40;99.90;;;;;;5049221;28;20094;-86
2021/12/30 04:43:59;;;;;;;49.40;5.93;;;10.40;99.90;;;;;;5049096;28;20111;-86
2021/12/30 04:46:24;;;;;;;59.42;7.28;;;10.40;99.90;;;;;;5049724;28;20110;-86
2021/12/30 04:48:50;;;;;;;57.65;7.15;;;10.40;99.90;;;;;;5049310;28;20025;-86
2021/12/30 04:51:16;;;;;;;57.08;6.68;;;10.40;99.90;;;;;;5050348;28;20033;-86
2021/12/30 04:53:43;;;;;;;61.45;7.60;;;10.50;99.90;;;;;;5049318;28;20037;-86
2021/12/30 04:56:09;;;;;;;64.75;8.05;;;10.50;99.90;;;;;;5049097;28;20021;-86
2021/12/30 04:58:34;;;;;;;58.85;8.52;;;10.50;99.90;;;;;;5054224;28;20021;-86
2021/12/30 05:01:00;;;;;;;66.30;9.77;;;10.30;99.90;;;;;;5053062;28;20107;-87
2021/12/30 05:03:26;;;;;;;62.80;6.93;;;10.50;99.90;;;;;;5052958;28;20049;-86
2021/12/30 05:05:53;;;;;;;66.72;8.15;;;10.50;99.90;;;;;;5053265;28;20032;-86
2021/12/30 05:08:21;;;;;;;43.78;6.32;;;10.50;99.90;;;;;;5053259;28;20541;-87
2021/12/30 05:10:48;;;;;;;59.13;8.90;;;10.60;99.90;;;;;;5053161;28;20468;-86
2021/12/30 05:13:15;;;;;;;59.30;7.82;;;10.60;99.90;;;;;;5052806;28;20039;-87
2021/12/30 05:15:41;;;;;;;123.18;12.30;;;10.70;99.90;;;;;;5053199;28;20056;-87
2021/12/30 05:18:09;;;;;;;66.85;10.05;;;10.70;99.90;;;;;;5052738;28;20056;-87
2021/12/30 05:20:36;;;;;;;50.90;8.43;;;10.80;99.90;;;;;;5054346;28;20100;-86
2021/12/30 05:23:01;;;;;;;53.38;6.72;;;10.80;99.90;;;;;;5052771;28;20078;-86
2021/12/30 05:25:27;;;;;;;53.58;7.75;;;10.80;99.90;;;;;;5053231;28;20029;-86
2021/12/30 05:27:53;;;;;;;45.42;8.00;;;10.80;99.90;;;;;;5052897;28;20029;-86
2021/12/30 05:30:23;;;;;;;54.85;7.80;;;10.80;99.90;;;;;;5053792;28;20021;-87
2021/12/30 05:32:50;;;;;;;52.58;7.93;;;10.80;99.90;;;;;;5052306;28;20036;-87
2021/12/30 05:35:16;;;;;;;58.22;8.90;;;10.90;99.90;;;;;;5052705;28;20040;-86
2021/12/30 05:37:43;;;;;;;45.80;8.00;;;10.90;99.90;;;;;;5052500;28;20400;-86
2021/12/30 05:40:13;;;;;;;68.97;9.00;;;10.90;99.90;;;;;;5052713;28;20044;-86
2021/12/30 05:42:39;;;;;;;59.95;8.52;;;11.00;99.90;;;;;;5052391;28;20404;-86
2021/12/30 05:45:06;;;;;;;52.85;8.45;;;11.00;99.90;;;;;;5052697;28;20029;-87
2021/12/30 05:47:33;;;;;;;41.53;7.35;;;11.00;99.90;;;;;;5052226;28;20487;-87
2021/12/30 05:49:59;;;;;;;45.55;7.57;;;11.00;99.90;;;;;;5052299;28;20025;-86
2021/12/30 05:52:25;;;;;;;50.20;8.07;;;11.00;99.90;;;;;;5052032;28;20089;-86
2021/12/30 05:54:50;;;;;;;39.08;7.95;;;11.10;99.90;;;;;;5052295;28;20116;-86
2021/12/30 05:57:16;;;;;;;37.30;8.68;;;11.20;99.90;;;;;;5052351;28;20328;-87
2021/12/30 05:59:42;;;;;;;45.60;7.90;;;11.20;99.90;;;;;;5052406;28;20028;-87
2021/12/30 06:02:07;;;;;;;42.75;7.93;;;11.20;99.90;;;;;;5052415;28;20404;-86
2021/12/30 06:04:33;;;;;;;42.15;8.60;;;11.20;99.90;;;;;;5053837;28;20499;-86
2021/12/30 06:06:59;;;;;;;42.78;8.27;;;11.20;99.90;;;;;;5053314;28;20029;-87
2021/12/30 06:09:26;;;;;;;33.30;6.88;;;11.20;99.90;;;;;;5051920;28;20029;-87
2021/12/30 06:11:52;;;;;;;32.60;6.80;;;11.20;99.90;;;;;;5051873;28;20059;-86
2021/12/30 06:14:18;;;;;;;31.65;6.50;;;11.20;99.90;;;;;;5052015;28;20052;-87
2021/12/30 06:16:43;;;;;;;32.05;6.13;;;11.30;99.90;;;;;;5052024;28;20072;-87
2021/12/30 06:19:09;;;;;;;28.70;6.35;;;11.20;99.90;;;;;;5051809;28;20032;-86
2021/12/30 06:21:34;;;;;;;28.77;6.10;;;11.20;99.90;;;;;;5051756;28;20028;-87
2021/12/30 06:24:02;;;;;;;23.90;5.43;;;11.20;99.90;;;;;;5051687;28;20028;-86
2021/12/30 06:26:28;;;;;;;19.88;4.88;;;11.30;99.90;;;;;;5051635;28;20079;-87
2021/12/30 06:28:53;;;;;;;23.02;5.05;;;11.30;99.90;;;;;;5050280;28;20229;-87
2021/12/30 06:31:19;;;;;;;20.23;5.65;;;11.30;99.90;;;;;;5047167;28;20051;-86
2021/12/30 06:33:45;;;;;;;20.42;5.30;;;11.40;99.90;;;;;;5055556;28;20400;-89
2021/12/30 06:36:11;;;;;;;17.40;5.25;;;11.40;99.90;;;;;;5054419;28;20021;-89
2021/12/30 06:38:37;;;;;;;18.77;4.30;;;11.30;99.90;;;;;;5054646;28;20064;-89
2021/12/30 06:41:04;;;;;;;14.63;4.10;;;11.40;99.90;;;;;;5054264;28;20078;-89
2021/12/30 06:43:30;;;;;;;13.13;4.22;;;11.30;99.90;;;;;;5054542;28;20112;-89
2021/12/30 06:45:55;;;;;;;20.63;3.83;;;11.30;99.90;;;;;;5055061;28;20476;-89
2021/12/30 06:48:21;;;;;;;15.15;3.88;;;11.40;99.90;;;;;;5054293;28;20469;-89
2021/12/30 06:50:52;;;;;;;18.50;4.35;;;11.40;99.90;;;;;;5054084;28;20111;-89
2021/12/30 06:53:22;;;;;;;16.67;3.90;;;11.50;99.90;;;;;;5054126;28;20037;-89
2021/12/30 06:55:49;;;;;;;20.73;4.13;;;11.40;99.90;;;;;;5054046;28;20029;-85
2021/12/30 06:58:15;;;;;;;9.63;2.75;;;11.40;99.90;;;;;;5053883;28;20036;-85
2021/12/30 07:00:41;;;;;;;10.18;3.30;;;11.50;99.90;;;;;;5054912;28;20025;-85
2021/12/30 07:03:07;;;;;;;11.55;2.80;;;11.50;99.90;;;;;;5053873;28;20110;-85
2021/12/30 07:05:34;;;;;;;10.65;2.38;;;11.60;99.90;;;;;;5053688;28;20033;-85
2021/12/30 07:08:00;;;;;;;12.48;2.70;;;11.50;99.90;;;;;;5053436;28;20032;-85
2021/12/30 07:10:26;;;;;;;16.00;4.43;;;11.50;99.90;;;;;;5053764;28;20025;-85
2021/12/30 07:12:52;;;;;;;22.45;7.00;;;11.60;99.90;;;;;;5053424;28;20021;-85
2021/12/30 07:15:18;;;;;;;23.48;5.38;;;11.50;99.90;;;;;;5054567;28;20032;-85
2021/12/30 07:17:44;;;;;;;15.15;3.60;;;11.50;99.90;;;;;;5053237;28;20090;-84
2021/12/30 07:20:11;;;;;;;16.73;3.45;;;11.50;99.90;;;;;;5054365;28;20411;-84
2021/12/30 07:22:37;;;;;;;8.93;3.25;;;11.40;99.90;;;;;;5053287;28;20087;-84
2021/12/30 07:25:03;;;;;;;15.70;3.47;;;11.50;99.90;;;;;;5054566;28;20599;-85
2021/12/30 07:27:29;;;;;;;17.67;3.60;;;11.50;99.90;;;;;;5054384;28;20465;-85
2021/12/30 07:29:56;;;;;;;14.13;3.00;;;11.50;99.90;;;;;;5054535;28;20032;-84
2021/12/30 07:32:22;;;;;;;12.63;2.97;;;11.50;99.90;;;;;;5052984;28;20025;-84
2021/12/30 07:34:48;;;;;;;17.77;3.03;;;11.50;99.90;;;;;;5052955;28;20036;-84
2021/12/30 07:37:14;;;;;;;14.77;3.30;;;11.40;99.90;;;;;;5053860;28;20028;-84
2021/12/30 07:39:44;;;;;;;14.75;3.17;;;11.40;99.90;;;;;;5052897;28;20021;-84
2021/12/30 07:42:11;;;;;;;22.30;4.20;;;11.40;99.90;;;;;;5052927;28;20029;-88
2021/12/30 07:44:37;;;;;;;13.10;3.28;;;11.50;99.90;;;;;;5052630;28;20036;-89
2021/12/30 07:47:03;;;;;;;15.45;3.50;;;11.30;99.90;;;;;;5052951;28;20021;-89
2021/12/30 07:49:29;;;;;;;13.75;3.70;;;11.40;99.90;;;;;;5052871;28;20021;-89
2021/12/30 07:51:57;;;;;;;15.70;3.70;;;11.40;99.90;;;;;;5052892;28;20499;-89
2021/12/30 07:54:24;;;;;;;16.45;3.40;;;11.30;99.90;;;;;;5052505;28;20029;-88
2021/12/30 07:56:49;;;;;;;16.27;3.65;;;11.30;99.90;;;;;;5052722;28;20373;-89
2021/12/30 07:59:15;;;;;;;11.43;2.67;;;11.30;99.90;;;;;;5052660;28;20554;-89
2021/12/30 08:01:41;;;;;;;18.00;3.00;;;11.30;99.90;;;;;;5050379;28;20464;-88
2021/12/30 08:04:06;;;;;;;14.95;2.95;;;11.30;99.90;;;;;;5050025;28;20480;-89
2021/12/30 08:06:33;;;;;;;14.70;2.50;;;11.20;99.90;;;;;;5050544;28;20025;-89
2021/12/30 08:08:59;;;;;;;14.85;2.65;;;11.30;99.90;;;;;;5050349;28;20063;-89
2021/12/30 08:11:24;;;;;;;14.63;3.00;;;11.40;99.90;;;;;;5050534;28;20033;-89
2021/12/30 08:13:50;;;;;;;12.88;2.67;;;11.40;99.90;;;;;;5050259;28;20086;-90
2021/12/30 08:16:16;;;;;;;13.25;2.63;;;11.40;99.90;;;;;;5050571;28;20025;-89
2021/12/30 08:18:41;;;;;;;13.05;2.58;;;11.40;99.90;;;;;;5050196;28;20021;-89
2021/12/30 08:21:10;;;;;;;9.82;2.38;;;11.50;99.90;;;;;;5049981;28;20029;-89
2021/12/30 08:23:36;;;;;;;15.65;2.20;;;11.50;99.90;;;;;;5050406;28;20396;-88
2021/12/30 08:26:03;;;;;;;16.20;2.00;;;11.60;99.90;;;;;;5050097;28;20025;-88
2021/12/30 08:28:29;;;;;;;16.75;2.15;;;11.60;99.90;;;;;;5050082;28;20078;-88
2021/12/30 08:30:55;;;;;;;17.63;2.63;;;11.50;99.90;;;;;;5049594;28;20116;-88
2021/12/30 08:33:21;;;;;;;19.02;2.70;;;11.60;99.90;;;;;;5049143;28;20106;-88
2021/12/30 08:35:46;;;;;;;14.80;2.00;;;11.50;99.90;;;;;;5050145;28;20028;-89
2021/12/30 08:38:13;;;;;;;15.85;2.08;;;11.60;99.90;;;;;;5050142;28;20033;-89
2021/12/30 08:40:39;;;;;;;18.10;2.08;;;11.60;99.90;;;;;;5049781;28;20369;-88
2021/12/30 08:43:06;;;;;;;18.08;3.78;;;11.70;99.90;;;;;;5050174;28;20031;-89
2021/12/30 08:45:33;;;;;;;15.15;2.22;;;11.70;99.90;;;;;;5049867;28;20017;-89
2021/12/30 08:48:00;;;;;;;13.50;1.98;;;11.70;99.90;;;;;;5050105;28;20056;-90
2021/12/30 08:50:26;;;;;;;10.88;2.60;;;11.60;99.90;;;;;;5050823;28;20151;-89
2021/12/30 08:52:52;;;;;;;14.15;2.40;;;11.70;99.90;;;;;;5049907;28;20140;-89
2021/12/30 08:55:18;;;;;;;25.48;2.72;;;11.80;99.90;;;;;;5049672;28;20079;-89
2021/12/30 08:57:44;;;;;;;14.02;2.80;;;11.80;99.90;;;;;;5049953;28;20036;-88
2021/12/30 09:00:24;;;;;;;22.10;3.03;;;11.80;99.90;;;;;;5050078;28;20115;-89
2021/12/30 09:02:52;;;;;;;16.50;2.60;;;12.00;99.90;;;;;;5050228;28;20043;-88
2021/12/30 09:05:18;;;;;;;12.60;2.22;;;11.80;99.90;;;;;;5049085;28;20043;-88
2021/12/30 09:07:44;;;;;;;17.20;2.78;;;11.90;99.90;;;;;;5049790;28;20135;-89
2021/12/30 09:10:11;;;;;;;12.80;3.42;;;11.80;99.90;;;;;;5050186;28;20112;-89
2021/12/30 09:12:38;;;;;;;19.35;2.65;;;11.90;99.90;;;;;;5051495;28;20032;-89
2021/12/30 09:15:05;;;;;;;19.00;2.63;;;11.90;99.90;;;;;;5051989;28;20116;-89
2021/12/30 09:17:31;;;;;;;16.20;2.80;;;11.90;99.90;;;;;;5051727;28;20453;-89
2021/12/30 09:19:57;;;;;;;19.45;2.25;;;11.90;99.90;;;;;;5052361;28;20635;-88
2021/12/30 09:22:23;;;;;;;13.10;2.45;;;11.90;99.90;;;;;;5051682;28;20055;-87
2021/12/30 09:24:50;;;;;;;19.70;3.20;;;12.10;99.90;;;;;;5051939;28;20021;-88
2021/12/30 09:27:15;;;;;;;19.42;3.30;;;12.00;99.90;;;;;;5052046;28;20029;-85
2021/12/30 09:29:41;;;;;;;23.13;3.00;;;12.10;99.90;;;;;;5051513;28;20091;-84
2021/12/30 09:32:07;;;;;;;18.77;3.20;;;12.20;99.90;;;;;;5051599;28;20029;-86
2021/12/30 09:34:33;;;;;;;18.52;2.90;;;12.10;99.90;;;;;;5051675;28;20120;-85
2021/12/30 09:36:59;;;;;;;17.23;3.28;;;12.10;99.90;;;;;;5052777;28;20122;-85
2021/12/30 09:39:58;;;;;;;17.33;2.95;;;12.10;99.90;;;;;;5052890;28;20598;-85
2021/12/30 09:42:24;;;;;;;14.27;2.83;;;12.30;99.90;;;;;;5052994;28;20025;-85
2021/12/30 09:44:50;;;;;;;17.15;2.63;;;12.30;99.90;;;;;;5054988;28;20032;-84
2021/12/30 09:47:15;;;;;;;13.85;3.47;;;12.30;99.90;;;;;;5055140;28;20029;-84
2021/12/30 09:49:41;;;;;;;21.40;3.17;;;12.30;99.90;;;;;;5056237;28;20017;-88
2021/12/30 09:52:06;;;;;;;16.48;2.63;;;12.40;99.90;;;;;;5054987;28;20025;-88
2021/12/30 09:54:33;;;;;;;19.55;3.00;;;12.40;99.90;;;;;;5056598;28;20060;-89
2021/12/30 09:56:58;;;;;;;26.50;2.95;;;12.50;99.90;;;;;;5054855;28;20025;-88
2021/12/30 09:59:26;;;;;;;19.02;2.20;;;12.40;99.90;;;;;;5050144;28;20039;-87
2021/12/30 10:01:52;;;;;;;14.98;2.53;;;12.50;99.90;;;;;;5035051;28;20038;-87
2021/12/30 10:04:27;;;;;;;15.13;2.28;;;12.50;99.90;;;;;;5043529;28;20077;-87
2021/12/30 10:06:52;;;;;;;16.10;2.88;;;12.60;99.90;;;;;;5041594;28;20037;-84
2021/12/30 10:09:18;;;;;;;15.07;2.28;;;12.60;99.90;;;;;;5049215;28;20086;-84
2021/12/30 10:11:47;;;;;;;19.55;3.45;;;12.60;99.90;;;;;;5053370;28;20079;-85
2021/12/30 10:14:26;;;;;;;18.50;2.83;;;12.60;99.90;;;;;;5055905;28;20022;-85
2021/12/30 10:17:13;;;;;;;13.40;2.80;;;12.60;99.90;;;;;;5055700;28;20023;-84
2021/12/30 10:19:38;;;;;;;20.67;2.88;;;12.60;99.90;;;;;;5055552;28;20469;-84
2021/12/30 10:22:15;;;;;;;23.40;3.60;;;12.50;99.90;;;;;;5055636;28;20046;-85
2021/12/30 10:24:44;;;;;;;21.40;2.88;;;12.60;99.90;;;;;;5055716;28;20508;-84
2021/12/30 10:27:20;;;;;;;16.90;3.60;;;12.60;99.90;;;;;;5055638;28;20029;-84
2021/12/30 10:29:48;;;;;;;22.27;3.13;;;12.60;99.90;;;;;;5055470;28;20120;-85
2021/12/30 10:32:18;;;;;;;16.73;2.88;;;12.60;99.90;;;;;;5055585;28;20516;-85
2021/12/30 10:35:13;;;;;;;22.33;3.75;;;12.70;99.90;;;;;;5054174;28;20028;-85
2021/12/30 10:37:43;;;;;;;24.65;3.65;;;12.70;99.90;;;;;;5055465;28;20075;-84
2021/12/30 10:40:26;;;;;;;;;;;12.60;99.90;;;;;;5055630;28;20036;-84
2021/12/30 10:42:51;;;;;;;16.48;3.70;;;12.70;99.90;;;;;;5055151;28;19905;-84
2021/12/30 10:45:20;;;;;;;34.17;4.90;;;12.50;99.90;;;;;;5054797;28;20028;-84
2021/12/30 10:47:54;;;;;;;17.52;3.42;;;12.60;99.90;;;;;;5055254;28;20656;-83
2021/12/30 10:50:23;;;;;;;24.70;3.70;;;12.60;99.90;;;;;;5055034;28;20515;-83
2021/12/30 10:52:53;;;;;;;25.58;3.78;;;12.60;99.90;;;;;;5053718;28;20457;-82
2021/12/30 10:55:20;;;;;;;29.23;5.25;;;12.60;99.90;;;;;;5052768;28;20033;-82
2021/12/30 10:57:46;;;;;;;34.55;4.57;;;12.60;99.90;;;;;;5054838;28;20032;-83
2021/12/30 11:00:33;;;;;;;32.25;4.32;;;12.70;99.90;;;;;;5054754;28;20025;-83
2021/12/30 11:03:24;;;;;;;24.30;4.13;;;12.70;99.90;;;;;;5053336;28;20064;-83
2021/12/30 11:06:17;;;;;;;26.50;4.20;;;12.60;99.90;;;;;;5053420;28;20029;-83
2021/12/30 11:08:43;;;;;;;30.15;4.68;;;12.60;99.90;;;;;;5053394;28;20151;-84
2021/12/30 11:11:25;;;;;;;36.70;5.63;;;12.60;99.90;;;;;;5046144;28;20021;-84
2021/12/30 11:14:04;;;;;;;24.70;4.93;;;12.60;99.90;;;;;;5033669;28;20037;-84
2021/12/30 11:16:30;;;;;;;31.13;4.93;;;12.60;99.90;;;;;;5049416;28;20139;-84
2021/12/30 11:18:57;;;;;;;26.38;4.60;;;12.70;99.90;;;;;;5045181;28;20053;-84
2021/12/30 11:21:40;;;;;;;24.33;4.57;;;12.70;99.90;;;;;;5050241;28;20029;-84
2021/12/30 11:24:07;;;;;;;31.88;4.47;;;12.70;99.90;;;;;;5053270;28;20029;-84
2021/12/30 11:26:33;;;;;;;25.73;4.65;;;12.70;99.90;;;;;;5054478;28;20028;-84
2021/12/30 11:29:01;;;;;;;26.20;4.35;;;12.70;99.90;;;;;;5052750;28;20380;-84
2021/12/30 11:31:29;;;;;;;35.30;4.38;;;12.70;99.90;;;;;;5038418;28;20033;-84
2021/12/30 11:33:55;;;;;;;31.50;5.03;;;12.70;99.90;;;;;;5051566;28;20044;-84
2021/12/30 11:36:21;;;;;;;23.77;4.50;;;12.70;99.90;;;;;;5039709;28;20025;-84
2021/12/30 11:38:46;;;;;;;30.70;4.30;;;12.60;99.90;;;;;;5052880;28;20032;-83
2021/12/30 11:41:20;;;;;;;27.40;4.43;;;12.60;99.90;;;;;;5053857;28;20131;-84
2021/12/30 11:43:47;;;;;;;25.55;4.10;;;12.70;99.90;;;;;;5044831;28;20029;-84
2021/12/30 11:46:36;;;;;;;28.92;4.75;;;12.70;99.90;;;;;;5049047;28;20394;-83
2021/12/30 11:49:02;;;;;;;26.23;3.95;;;12.80;99.90;;;;;;5029814;28;20487;-85
2021/12/30 11:51:49;;;;;;;22.08;4.18;;;12.90;99.90;;;;;;5049342;28;20022;-84
2021/12/30 11:54:42;;;;;;;26.17;4.57;;;13.20;99.90;;;;;;5049391;28;20029;-83
2021/12/30 11:57:32;;;;;;;25.73;3.78;;;13.40;99.90;;;;;;5052629;28;20035;-84
2021/12/30 12:00:00;;;;;;;20.63;4.28;;;13.30;99.90;;;;;;5033106;28;20025;-84
2021/12/30 12:02:37;;;;;;;25.85;4.28;;;13.20;99.90;;;;;;5032685;28;20370;-84
2021/12/30 12:05:42;;;;;;;24.73;4.05;;;13.10;99.90;;;;;;5032405;28;20053;-84
2021/12/30 12:08:12;;;;;;;20.80;3.88;;;13.10;99.90;;;;;;5033389;28;20037;-83
2021/12/30 12:10:40;;;;;;;26.33;3.85;;;13.10;99.90;;;;;;5032468;28;20116;-84
2021/12/30 12:13:43;;;;;;;29.05;4.10;;;13.00;99.90;;;;;;5035768;28;20469;-84
2021/12/30 12:16:09;;;;;;;17.48;3.22;;;13.00;99.90;;;;;;5052172;28;20040;-84
2021/12/30 12:18:34;;;;;;;26.55;4.07;;;13.00;99.90;;;;;;5051993;28;20024;-84
2021/12/30 12:21:06;;;;;;;27.55;4.15;;;13.00;99.90;;;;;;5052108;28;20076;-83
2021/12/30 12:23:35;;;;;;;27.45;3.92;;;13.00;99.90;;;;;;5052221;28;20366;-83
2021/12/30 12:26:11;;;;;;;21.63;3.08;;;13.00;99.90;;;;;;5052251;28;20028;-84
2021/12/30 12:28:37;;;;;;;15.77;3.53;;;12.90;99.90;;;;;;5052092;28;20524;-84
2021/12/30 12:31:08;;;;;;;23.80;3.33;;;12.80;99.90;;;;;;5036722;28;20362;-84
2021/12/30 12:33:36;;;;;;;21.73;3.38;;;12.70;99.90;;;;;;5040106;28;20029;-84
2021/12/30 12:36:09;;;;;;;13.07;2.50;;;12.70;99.90;;;;;;5033427;28;20121;-83
2021/12/30 12:38:53;;;;;;;20.58;3.22;;;12.60;99.90;;;;;;5032130;28;20044;-84
2021/12/30 12:41:18;;;;;;;25.15;4.30;;;12.60;99.90;;;;;;5033871;28;20018;-83
2021/12/30 12:43:44;;;;;;;27.90;3.88;;;12.50;99.90;;;;;;5038176;28;20025;-84